Time;durP1;ratioP1;P1;durP2;ratioP2;P2;SDS_P1;SDS_P2;PMS_P1;PMS_P2;Temp;Humidity;BMP_temperature;BMP_pressure;BME280_temperature;BME280_humidity;BME280_pressure;Samples;Min_cycle;Max_cycle;Signal;HPM_P1;HPM_P2
2022/09/22 00:02:58;;;;;;;;;;;;;;;12.75;57.20;100926.56;5325686;32;33471;-67
2022/09/22 00:06:04;;;;;;;;;;;;;;;12.56;57.85;100926.47;5340300;32;34113;-69
2022/09/22 00:09:08;;;;;;;;;;;;;;;12.93;56.59;100925.84;5322444;32;32837;-69
2022/09/22 00:12:12;;;;;;;;;;;;;;;11.83;59.97;100926.53;5327708;32;32769;-66
2022/09/22 00:15:14;;;;;;;;;;;;;;;11.58;61.52;100914.19;5337633;32;33678;-67
2022/09/22 00:18:15;;;;;;;;;;;;;;;11.73;61.19;100918.09;5334332;32;34025;-67
2022/09/22 00:21:19;;;;;;;;;;;;;;;11.56;61.43;100916.03;5330249;32;33910;-65
2022/09/22 00:24:23;;;;;;;;;;;;;;;11.23;62.70;100918.06;5309211;32;34074;-67
2022/09/22 00:27:25;;;;;;;;;;;;;;;11.66;61.74;100913.97;5337171;32;45268;-66
2022/09/22 00:30:27;;;;;;;;;;;;;;;11.95;60.73;100919.97;5326548;32;33472;-66
2022/09/22 00:33:29;;;;;;;;;;;;;;;12.72;57.96;100921.44;5324902;32;33736;-69
2022/09/22 00:36:31;;;;;;;;;;;;;;;11.88;60.55;100912.31;5342276;32;33465;-68
2022/09/22 00:39:33;;;;;;;;;;;;;;;11.75;61.51;100918.87;5324467;32;34597;-68
2022/09/22 00:42:35;;;;;;;;;;;;;;;11.22;63.26;100915.47;5327319;32;33033;-67
2022/09/22 00:45:37;;;;;;;;;;;;;;;12.28;59.42;100916.09;5314572;32;33774;-69
2022/09/22 00:48:43;;;;;;;;;;;;;;;11.27;63.11;100917.06;5338500;32;33531;-70
2022/09/22 00:51:44;;;;;;;;;;;;;;;11.55;62.39;100918.72;5327663;32;35002;-69
2022/09/22 00:54:47;;;;;;;;;;;;;;;11.99;61.08;100904.03;5326553;32;34073;-66
2022/09/22 00:57:48;;;;;;;;;;;;;;;11.85;61.16;100901.00;5340278;32;33489;-68
2022/09/22 01:00:50;;;;;;;;;;;;;;;11.77;61.73;100897.75;5319099;32;33703;-67
2022/09/22 01:03:53;;;;;;;;;;;;;;;11.41;63.04;100906.06;5350306;32;44710;-70
2022/09/22 01:06:55;;;;;;;;;;;;;;;11.96;61.38;100898.00;5326924;32;33783;-70
2022/09/22 01:09:58;;;;;;;;;;;;;;;11.53;62.34;100897.72;5345158;32;33719;-70
2022/09/22 01:13:00;;;;;;;;;;;;;;;11.54;62.72;100903.84;5315081;32;34020;-70
2022/09/22 01:16:21;;;;;;;;;;;;;;;11.65;62.11;100901.69;5314624;32;34082;-69
2022/09/22 01:19:42;;;;;;;;;;;;;;;11.20;64.17;100904.97;5350660;32;48502;-68
2022/09/22 01:23:04;;;;;;;;;;;;;;;11.62;63.31;100881.59;5317719;32;33489;-69
2022/09/22 01:26:05;;;;;;;;;;;;;;;12.28;60.63;100873.94;5331503;32;33934;-69
2022/09/22 01:29:07;;;;;;;;;;;;;;;12.60;59.45;100882.38;5337496;32;32909;-69
2022/09/22 01:32:16;;;;;;;;;;;;;;;12.79;58.49;100887.75;5326427;32;34413;-67
2022/09/22 01:35:39;;;;;;;;;;;;;;;11.48;62.89;100891.75;5344077;32;33084;-69
2022/09/22 01:38:59;;;;;;;;;;;;;;;11.16;64.91;100897.25;5326221;32;31865;-69
2022/09/22 01:42:10;;;;;;;;;;;;;;;11.10;64.94;100895.69;5327500;32;46969;-66
2022/09/22 01:45:13;;;;;;;;;;;;;;;10.82;66.66;100901.84;5327652;32;33712;-66
2022/09/22 01:48:28;;;;;;;;;;;;;;;11.22;64.77;100890.03;5324225;32;33483;-69
2022/09/22 01:51:31;;;;;;;;;;;;;;;12.43;60.86;100888.31;5340011;32;45017;-68
2022/09/22 01:54:40;;;;;;;;;;;;;;;12.79;59.19;100904.44;5326117;32;33244;-67
2022/09/22 01:58:02;;;;;;;;;;;;;;;12.10;61.35;100901.81;5335992;32;33427;-67
2022/09/22 02:01:06;;;;;;;;;;;;;;;12.31;60.75;100891.41;5319102;32;33741;-70
2022/09/22 02:04:25;;;;;;;;;;;;;;;11.11;65.10;100893.00;5308083;32;33778;-70
2022/09/22 02:07:35;;;;;;;;;;;;;;;11.08;65.72;100889.62;5330776;32;44783;-67
2022/09/22 02:10:39;;;;;;;;;;;;;;;11.06;66.02;100884.41;5314619;32;32963;-67
2022/09/22 02:13:41;;;;;;;;;;;;;;;10.99;66.32;100897.81;5336695;32;33733;-66
2022/09/22 02:16:43;;;;;;;;;;;;;;;11.66;63.31;100895.53;5331132;32;34095;-69
2022/09/22 02:19:45;;;;;;;;;;;;;;;11.99;62.31;100892.62;5336331;32;33238;-69
2022/09/22 02:22:47;;;;;;;;;;;;;;;12.07;61.86;100890.56;5352042;32;33850;-66
2022/09/22 02:25:49;;;;;;;;;;;;;;;11.45;63.76;100889.22;5310384;32;33863;-67
2022/09/22 02:28:52;;;;;;;;;;;;;;;11.39;64.82;100900.81;5339952;32;34186;-69
2022/09/22 02:31:54;;;;;;;;;;;;;;;10.71;66.90;100897.84;5315425;32;46202;-68
2022/09/22 02:34:56;;;;;;;;;;;;;;;11.44;64.46;100897.19;5326538;32;33599;-69
2022/09/22 02:38:21;;;;;;;;;;;;;;;11.13;65.41;100893.81;5346459;32;32856;-70
2022/09/22 02:41:37;;;;;;;;;;;;;;;11.00;66.90;100907.41;5323769;32;44498;-66
2022/09/22 02:44:53;;;;;;;;;;;;;;;10.48;68.29;100901.16;5318910;32;34142;-67
2022/09/22 02:47:56;;;;;;;;;;;;;;;10.49;68.41;100911.63;5337127;32;45863;-66
2022/09/22 02:50:58;;;;;;;;;;;;;;;11.04;66.67;100895.91;5317928;32;34184;-69
2022/09/22 02:54:00;;;;;;;;;;;;;;;11.31;64.90;100892.34;5329946;32;33788;-68
2022/09/22 02:57:02;;;;;;;;;;;;;;;11.55;63.56;100887.16;5310374;32;33333;-70
2022/09/22 03:00:04;;;;;;;;;;;;;;;11.63;64.29;100891.22;5342299;32;33280;-69
2022/09/22 03:03:06;;;;;;;;;;;;;;;10.73;67.48;100896.88;5325946;32;34054;-69
2022/09/22 03:06:08;;;;;;;;;;;;;;;10.55;67.79;100895.66;5336819;32;34156;-67
2022/09/22 03:09:10;;;;;;;;;;;;;;;11.01;67.35;100891.59;5324108;32;33649;-69
2022/09/22 03:12:12;;;;;;;;;;;;;;;10.86;67.37;100886.81;5340601;32;34107;-69
2022/09/22 03:15:14;;;;;;;;;;;;;;;10.99;67.05;100884.66;5333413;32;33929;-65
2022/09/22 03:18:16;;;;;;;;;;;;;;;10.15;70.32;100888.09;5336789;32;33400;-69
2022/09/22 03:21:17;;;;;;;;;;;;;;;10.41;69.39;100889.97;5329759;32;33720;-67
2022/09/22 03:24:19;;;;;;;;;;;;;;;11.91;63.67;100880.59;5321666;32;33722;-69
2022/09/22 03:27:21;;;;;;;;;;;;;;;12.39;61.21;100879.66;5339357;32;33565;-66
2022/09/22 03:30:23;;;;;;;;;;;;;;;12.17;61.87;100879.62;5313687;32;43965;-66
2022/09/22 03:33:25;;;;;;;;;;;;;;;11.16;65.18;100884.97;5326002;32;34128;-67
2022/09/22 03:36:27;;;;;;;;;;;;;;;10.42;68.54;100873.31;5336091;32;34310;-66
2022/09/22 03:39:29;;;;;;;;;;;;;;;10.55;68.70;100874.66;5320435;32;33795;-69
2022/09/22 03:42:31;;;;;;;;;;;;;;;10.56;69.57;100872.88;5323070;32;33400;-66
2022/09/22 03:45:34;;;;;;;;;;;;;;;11.06;67.21;100870.38;5312718;32;33379;-65
2022/09/22 03:48:36;;;;;;;;;;;;;;;11.45;64.30;100876.06;5341984;32;33611;-69
2022/09/22 03:51:43;;;;;;;;;;;;;;;10.49;68.57;100880.09;5325153;32;33510;-67
2022/09/22 03:54:45;;;;;;;;;;;;;;;10.75;67.84;100878.41;5329115;32;33857;-69
2022/09/22 03:57:47;;;;;;;;;;;;;;;10.17;70.50;100875.78;5340081;32;34123;-68
2022/09/22 04:00:49;;;;;;;;;;;;;;;11.25;66.53;100878.53;5323718;32;34309;-69
2022/09/22 04:03:51;;;;;;;;;;;;;;;11.95;63.02;100883.09;5339750;32;34116;-66
2022/09/22 04:06:53;;;;;;;;;;;;;;;11.78;63.53;100878.41;5318404;32;44750;-66
2022/09/22 04:09:55;;;;;;;;;;;;;;;10.77;67.67;100890.63;5338798;32;33625;-66
2022/09/22 04:12:57;;;;;;;;;;;;;;;11.37;65.58;100884.22;5335176;32;33481;-67
2022/09/22 04:15:59;;;;;;;;;;;;;;;11.63;62.50;100858.75;5336469;32;33991;-68
2022/09/22 04:19:03;;;;;;;;;;;;;;;11.54;63.54;100872.25;5339830;32;33682;-67
2022/09/22 04:22:05;;;;;;;;;;;;;;;11.76;63.09;100864.44;5327836;32;32983;-66
2022/09/22 04:25:07;;;;;;;;;;;;;;;11.80;63.47;100868.69;5340891;32;32786;-67
2022/09/22 04:28:09;;;;;;;;;;;;;;;12.25;61.18;100873.19;5325427;32;33096;-66
2022/09/22 04:31:11;;;;;;;;;;;;;;;11.56;62.70;100883.59;5323702;32;33884;-69
2022/09/22 04:34:13;;;;;;;;;;;;;;;11.29;64.54;100886.28;5327277;32;32905;-68
2022/09/22 04:37:15;;;;;;;;;;;;;;;11.39;64.60;100887.66;5324110;32;32742;-65
2022/09/22 04:40:17;;;;;;;;;;;;;;;11.36;64.01;100890.41;5339443;32;33739;-68
2022/09/22 04:43:19;;;;;;;;;;;;;;;11.54;64.21;100899.44;5308687;32;34425;-69
2022/09/22 04:46:21;;;;;;;;;;;;;;;12.10;61.38;100890.44;5338864;32;33654;-66
2022/09/22 04:49:23;;;;;;;;;;;;;;;10.97;65.10;100895.22;5327755;32;45819;-68
2022/09/22 04:52:25;;;;;;;;;;;;;;;11.13;65.61;100896.44;5344003;32;33729;-68
2022/09/22 04:55:27;;;;;;;;;;;;;;;10.56;66.70;100880.75;5326733;32;34519;-67
2022/09/22 04:58:29;;;;;;;;;;;;;;;11.53;64.09;100886.34;5328222;32;33673;-69
2022/09/22 05:01:31;;;;;;;;;;;;;;;11.38;63.70;100885.09;5342206;32;33775;-65
2022/09/22 05:04:33;;;;;;;;;;;;;;;10.79;66.46;100896.69;5323566;32;33729;-66
2022/09/22 05:07:35;;;;;;;;;;;;;;;10.82;66.70;100896.59;5333292;32;33259;-67
2022/09/22 05:10:37;;;;;;;;;;;;;;;11.85;62.70;100888.72;5318829;32;33177;-66
2022/09/22 05:13:39;;;;;;;;;;;;;;;11.84;62.82;100889.59;5357242;32;33686;-68
2022/09/22 05:16:41;;;;;;;;;;;;;;;11.82;62.88;100883.53;5341133;32;33027;-69
2022/09/22 05:19:45;;;;;;;;;;;;;;;11.89;63.11;100889.44;5325742;32;33062;-67
2022/09/22 05:22:47;;;;;;;;;;;;;;;11.13;65.89;100892.94;5330809;32;33281;-69
2022/09/22 05:25:49;;;;;;;;;;;;;;;11.63;63.65;100880.69;5304760;32;33493;-66
2022/09/22 05:28:50;;;;;;;;;;;;;;;12.89;59.76;100876.78;5338697;32;33682;-67
2022/09/22 05:31:52;;;;;;;;;;;;;;;12.93;57.97;100882.78;5324704;32;45233;-67
2022/09/22 05:34:54;;;;;;;;;;;;;;;13.14;57.90;100881.91;5339683;32;34801;-69
2022/09/22 05:37:56;;;;;;;;;;;;;;;13.80;56.33;100885.22;5327474;32;33735;-71
2022/09/22 05:40:58;;;;;;;;;;;;;;;16.24;48.34;100882.88;5320995;32;33419;-67
2022/09/22 05:44:00;;;;;;;;;;;;;;;13.98;54.14;100882.69;5311217;32;33448;-72
2022/09/22 05:47:02;;;;;;;;;;;;;;;14.62;52.73;100877.94;5326275;32;33690;-71
2022/09/22 05:50:04;;;;;;;;;;;;;;;16.61;47.22;100878.16;5334957;32;34171;-68
2022/09/22 05:53:07;;;;;;;;;;;;;;;15.40;50.16;100882.00;5323819;32;33783;-73
2022/09/22 05:56:09;;;;;;;;;;;;;;;18.27;43.21;100879.78;5334447;32;33704;-68
2022/09/22 05:59:11;;;;;;;;;;;;;;;18.19;42.76;100874.97;5317796;32;33219;-71
2022/09/22 06:02:13;;;;;;;;;;;;;;;17.41;44.66;100879.75;5323567;32;32256;-71
2022/09/22 06:05:27;;;;;;;;;;;;;;;17.51;44.28;100880.87;5320299;32;44515;-70
2022/09/22 06:08:29;;;;;;;;;;;;;;;17.95;42.86;100877.34;5312526;32;33164;-70
2022/09/22 06:11:30;;;;;;;;;;;;;;;18.50;41.53;100878.34;5329397;32;35033;-66
2022/09/22 06:14:33;;;;;;;;;;;;;;;18.68;41.41;100882.53;5311574;32;33160;-70
2022/09/22 06:17:35;;;;;;;;;;;;;;;16.75;45.69;100896.84;5325331;32;32988;-70
2022/09/22 06:20:39;;;;;;;;;;;;;;;16.01;47.53;100898.31;5324147;32;32757;-68
2022/09/22 06:23:46;;;;;;;;;;;;;;;18.12;43.16;100887.81;5318053;32;33629;-74
2022/09/22 06:26:48;;;;;;;;;;;;;;;19.52;40.04;100881.37;5326909;32;33252;-70
2022/09/22 06:29:50;;;;;;;;;;;;;;;17.78;43.18;100883.72;5309962;32;32381;-72
2022/09/22 06:32:53;;;;;;;;;;;;;;;19.34;39.36;100886.12;5331462;32;35410;-67
2022/09/22 06:35:57;;;;;;;;;;;;;;;20.23;38.37;100887.00;5302543;32;35577;-65
2022/09/22 06:38:59;;;;;;;;;;;;;;;20.40;37.45;100880.44;5321557;32;32931;-72
2022/09/22 06:42:01;;;;;;;;;;;;;;;19.34;39.90;100878.97;5323292;32;33463;-74
2022/09/22 06:45:04;;;;;;;;;;;;;;;19.63;39.28;100885.00;5291530;32;34620;-66
2022/09/22 06:48:06;;;;;;;;;;;;;;;20.92;36.71;100881.13;5323052;32;34385;-72
2022/09/22 06:51:11;;;;;;;;;;;;;;;21.13;35.90;100881.37;5314656;32;33250;-68
2022/09/22 06:54:15;;;;;;;;;;;;;;;20.89;37.04;100876.88;5330618;32;32111;-70
2022/09/22 06:57:17;;;;;;;;;;;;;;;20.31;37.61;100877.59;5318865;32;34872;-72
2022/09/22 07:00:19;;;;;;;;;;;;;;;20.07;38.87;100881.03;5317367;32;33092;-71
2022/09/22 07:03:23;;;;;;;;;;;;;;;20.75;36.36;100880.59;5331576;32;34270;-71
2022/09/22 07:06:25;;;;;;;;;;;;;;;21.18;35.81;100869.34;5319226;32;45547;-71
2022/09/22 07:09:27;;;;;;;;;;;;;;;21.33;35.20;100876.25;5330845;32;31706;-67
2022/09/22 07:12:30;;;;;;;;;;;;;;;20.21;37.55;100877.37;5322725;32;34602;-71
2022/09/22 07:15:34;;;;;;;;;;;;;;;20.67;36.46;100876.75;5327881;32;34129;-71
2022/09/22 07:18:39;;;;;;;;;;;;;;;20.84;35.36;100873.69;5321778;32;34072;-71
2022/09/22 07:21:43;;;;;;;;;;;;;;;20.71;36.18;100868.41;5318056;32;33515;-70
2022/09/22 07:24:44;;;;;;;;;;;;;;;22.01;33.35;100853.09;5330570;32;33268;-68
2022/09/22 07:27:47;;;;;;;;;;;;;;;21.05;34.81;100865.88;5318861;32;34045;-72
2022/09/22 07:30:49;;;;;;;;;;;;;;;24.17;29.87;100862.66;5329430;32;34853;-69
2022/09/22 07:33:51;;;;;;;;;;;;;;;22.85;31.40;100870.38;5318338;32;34223;-72
2022/09/22 07:36:53;;;;;;;;;;;;;;;21.32;34.90;100873.69;5330222;32;44541;-67
2022/09/22 07:39:55;;;;;;;;;;;;;;;22.17;33.81;100877.72;5324622;32;32946;-68
2022/09/22 07:42:57;;;;;;;;;;;;;;;22.22;33.68;100868.44;5304525;32;33030;-68
2022/09/22 07:45:59;;;;;;;;;;;;;;;21.46;34.47;100870.81;5324571;32;34493;-69
2022/09/22 07:49:01;;;;;;;;;;;;;;;23.00;32.08;100876.34;5315728;32;33006;-68
2022/09/22 07:52:03;;;;;;;;;;;;;;;20.67;35.83;100887.44;5331242;32;33156;-68
2022/09/22 07:55:05;;;;;;;;;;;;;;;21.81;34.36;100883.25;5299975;32;32987;-70
2022/09/22 07:58:07;;;;;;;;;;;;;;;20.41;36.71;100892.81;5323510;32;32052;-69
2022/09/22 08:01:10;;;;;;;;;;;;;;;18.55;40.53;100893.06;5319089;32;33224;-71
2022/09/22 08:04:14;;;;;;;;;;;;;;;18.45;41.01;100896.41;5314456;32;34502;-63
2022/09/22 08:07:16;;;;;;;;;;;;;;;17.71;43.81;100906.31;5335480;32;33950;-68
2022/09/22 08:10:18;;;;;;;;;;;;;;;17.57;43.32;100906.25;5312327;32;34622;-68
2022/09/22 08:13:22;;;;;;;;;;;;;;;16.87;45.24;100905.91;5331217;32;32780;-66
2022/09/22 08:16:26;;;;;;;;;;;;;;;16.80;45.28;100907.19;5322960;32;46589;-69
2022/09/22 08:19:29;;;;;;;;;;;;;;;16.68;45.32;100908.72;5311748;32;36670;-65
2022/09/22 08:22:32;;;;;;;;;;;;;;;17.28;44.40;100905.31;5324605;32;33118;-67
2022/09/22 08:25:33;;;;;;;;;;;;;;;17.96;42.68;100902.13;5311339;32;34167;-66
2022/09/22 08:28:38;;;;;;;;;;;;;;;17.29;42.90;100918.50;5328289;32;33058;-70
2022/09/22 08:31:41;;;;;;;;;;;;;;;16.88;42.82;100914.75;5316130;32;32444;-69
2022/09/22 08:34:43;;;;;;;;;;;;;;;17.06;43.31;100913.66;5327186;32;32975;-67
2022/09/22 08:37:48;;;;;;;;;;;;;;;16.28;45.08;100909.19;5320770;32;34311;-65
2022/09/22 08:41:12;;;;;;;;;;;;;;;16.98;43.67;100906.16;5320694;32;33023;-65
2022/09/22 08:44:21;;;;;;;;;;;;;;;16.82;44.75;100900.03;5308769;32;36032;-69
2022/09/22 08:54:15;;;;;;;;;;;;;;;17.33;41.43;100904.13;5312655;32;33990;-68
2022/09/22 08:57:27;;;;;;;;;;;;;;;18.97;38.67;100895.72;5318191;32;33356;-70
2022/09/22 09:00:31;;;;;;;;;;;;;;;18.76;38.69;100888.19;5318931;32;47007;-71
2022/09/22 09:03:53;;;;;;;;;;;;;;;17.48;41.78;100890.84;5316539;32;33438;-67
2022/09/22 09:07:15;;;;;;;;;;;;;;;18.52;40.08;100885.28;5320441;32;44887;-67
2022/09/22 09:10:20;;;;;;;;;;;;;;;19.70;37.34;100872.94;5312999;32;33863;-72
2022/09/22 09:13:31;;;;;;;;;;;;;;;22.10;32.74;100876.50;5320239;32;32963;-66
2022/09/22 09:16:44;;;;;;;;;;;;;;;21.75;33.89;100867.69;5335646;32;33173;-68
2022/09/22 09:19:50;;;;;;;;;;;;;;;22.91;31.46;100872.56;5315586;32;35332;-71
2022/09/22 09:22:55;;;;;;;;;;;;;;;22.17;32.28;100877.72;5333324;32;36135;-70
2022/09/22 09:25:57;;;;;;;;;;;;;;;22.36;32.25;100873.56;5325035;32;33767;-70
2022/09/22 09:29:00;;;;;;;;;;;;;;;23.14;30.78;100878.72;5318642;32;33536;-68
2022/09/22 09:32:05;;;;;;;;;;;;;;;21.49;33.77;100873.22;5328215;32;32333;-67
2022/09/22 09:35:10;;;;;;;;;;;;;;;22.73;30.87;100878.56;5305067;32;32967;-72
2022/09/22 09:38:16;;;;;;;;;;;;;;;20.64;34.86;100887.69;5329621;32;31636;-67
2022/09/22 09:41:20;;;;;;;;;;;;;;;22.82;31.70;100875.16;5318601;32;33002;-69
2022/09/22 09:44:25;;;;;;;;;;;;;;;24.45;28.56;100870.97;5299476;32;44738;-70
2022/09/22 09:47:27;;;;;;;;;;;;;;;23.95;29.00;100876.28;5322625;32;33645;-71
2022/09/22 09:50:30;;;;;;;;;;;;;;;25.39;27.21;100870.34;5322504;32;34578;-71
2022/09/22 09:53:36;;;;;;;;;;;;;;;26.28;25.71;100861.88;5334071;32;33081;-69
2022/09/22 09:57:01;;;;;;;;;;;;;;;22.95;30.48;100879.41;5315816;32;33851;-69
2022/09/22 10:00:32;;;;;;;;;;;;;;;23.73;29.64;100874.63;5321969;32;33087;-68
2022/09/22 10:03:34;;;;;;;;;;;;;;;25.16;27.50;100876.19;5330618;32;33463;-69
2022/09/22 10:06:38;;;;;;;;;;;;;;;23.83;28.90;100864.78;5304982;32;33255;-69
2022/09/22 10:09:40;;;;;;;;;;;;;;;24.29;29.05;100871.47;5328804;32;34090;-68
2022/09/22 10:12:42;;;;;;;;;;;;;;;21.75;32.65;100887.25;5310071;32;34429;-67
2022/09/22 10:15:44;;;;;;;;;;;;;;;18.77;37.95;100884.56;5330986;32;33014;-69
2022/09/22 10:18:47;;;;;;;;;;;;;;;20.12;35.63;100880.72;5317726;32;34749;-71
2022/09/22 10:21:49;;;;;;;;;;;;;;;19.93;36.94;100887.38;5318240;32;34331;-70
2022/09/22 10:24:55;;;;;;;;;;;;;;;23.14;30.78;100861.78;5333698;32;34361;-70
2022/09/22 10:28:00;;;;;;;;;;;;;;;23.36;29.87;100868.84;5322770;32;44584;-73
2022/09/22 10:31:04;;;;;;;;;;;;;;;22.05;30.85;100872.44;5331374;32;33240;-72
2022/09/22 10:34:24;;;;;;;;;;;;;;;22.34;30.41;100867.44;5315665;32;34940;-68
2022/09/22 10:37:26;;;;;;;;;;;;;;;23.55;28.68;100863.59;5306878;32;44529;-71
2022/09/22 10:40:28;;;;;;;;;;;;;;;21.85;31.16;100871.34;5323237;32;32474;-69
2022/09/22 10:43:30;;;;;;;;;;;;;;;21.98;31.31;100860.53;5297761;32;34417;-80
2022/09/22 10:46:33;;;;;;;;;;;;;;;19.93;34.75;100871.34;5309232;32;33429;-72
2022/09/22 10:49:38;;;;;;;;;;;;;;;20.97;31.52;100855.78;5306611;32;32455;-71
2022/09/22 10:52:42;;;;;;;;;;;;;;;21.69;31.55;100857.47;5333108;32;32827;-72
2022/09/22 10:55:44;;;;;;;;;;;;;;;21.99;30.16;100851.53;5304479;32;31166;-78
2022/09/22 10:58:53;;;;;;;;;;;;;;;21.89;30.50;100849.56;5319239;32;34666;-77
2022/09/22 11:02:06;;;;;;;;;;;;;;;21.51;31.18;100841.91;5326145;32;44471;-70
2022/09/22 11:12:38;;;;;;;;;;;;;;;19.43;34.87;100838.38;5328316;32;33239;-70
2022/09/22 11:15:46;;;;;;;;;;;;;;;19.25;34.98;100842.28;5317105;32;33076;-70
2022/09/22 11:18:48;;;;;;;;;;;;;;;18.54;36.31;100839.91;5328518;32;33152;-73
2022/09/22 11:22:02;;;;;;;;;;;;;;;18.80;36.13;100840.91;5315579;32;33422;-69
2022/09/22 11:25:23;;;;;;;;;;;;;;;18.90;36.38;100831.34;5323677;32;32890;-71
2022/09/22 11:28:31;;;;;;;;;;;;;;;19.14;35.51;100821.72;5328953;32;45002;-65
2022/09/22 11:31:35;;;;;;;;;;;;;;;18.94;35.54;100836.38;5319598;32;32795;-72
2022/09/22 11:34:37;;;;;;;;;;;;;;;20.02;34.16;100825.34;5324634;32;33256;-69
2022/09/22 11:37:50;;;;;;;;;;;;;;;19.95;33.80;100823.22;5311460;32;34350;-69
2022/09/22 11:40:53;;;;;;;;;;;;;;;19.33;35.33;100821.31;5327224;32;44295;-72
2022/09/22 11:43:57;;;;;;;;;;;;;;;19.57;34.84;100818.75;5284689;32;33467;-72
2022/09/22 11:47:05;;;;;;;;;;;;;;;19.68;32.95;100812.69;5317747;32;33192;-69
2022/09/22 11:50:10;;;;;;;;;;;;;;;20.39;32.02;100804.00;5334950;32;34211;-73
2022/09/22 11:53:15;;;;;;;;;;;;;;;20.09;32.16;100806.22;5322923;32;32970;-70
2022/09/22 11:56:21;;;;;;;;;;;;;;;20.88;30.81;100788.84;5327869;32;32769;-75
2022/09/22 11:59:42;;;;;;;;;;;;;;;20.48;31.66;100791.81;5319282;32;46092;-71
2022/09/22 12:02:48;;;;;;;;;;;;;;;20.41;31.25;100790.53;5319083;32;34818;-72
2022/09/22 12:06:09;;;;;;;;;;;;;;;20.10;31.63;100794.62;5332985;32;33167;-69
2022/09/22 12:09:30;;;;;;;;;;;;;;;20.52;31.67;100791.47;5320324;32;34250;-74
2022/09/22 12:12:37;;;;;;;;;;;;;;;20.38;31.94;100785.44;5321763;32;34376;-74
2022/09/22 12:15:43;;;;;;;;;;;;;;;21.22;31.12;100781.75;5325783;32;33085;-68
2022/09/22 12:18:48;;;;;;;;;;;;;;;21.12;34.32;100792.28;5311632;32;35012;-69
2022/09/22 12:21:52;;;;;;;;;;;;;;;21.79;35.90;100787.06;5338184;32;34291;-66
2022/09/22 12:24:54;;;;;;;;;;;;;;;21.17;37.17;100784.78;5316936;32;44411;-70
2022/09/22 12:27:57;;;;;;;;;;;;;;;22.00;36.36;100778.28;5328652;32;34447;-69
2022/09/22 12:31:11;;;;;;;;;;;;;;;21.48;37.03;100779.75;5314319;32;33153;-69
2022/09/22 12:34:14;;;;;;;;;;;;;;;21.85;36.92;100775.87;5319032;32;33662;-68
2022/09/22 12:37:28;;;;;;;;;;;;;;;22.20;35.87;100785.56;5318780;32;35231;-67
2022/09/22 12:40:40;;;;;;;;;;;;;;;21.90;36.29;100784.38;5307638;32;44651;-66
2022/09/22 12:43:44;;;;;;;;;;;;;;;21.99;36.13;100782.78;5292324;32;34270;-69
2022/09/22 12:46:47;;;;;;;;;;;;;;;20.97;37.63;100782.78;5308420;32;34077;-69
2022/09/22 12:49:55;;;;;;;;;;;;;;;20.55;40.05;100785.94;5309661;32;33758;-72
2022/09/22 12:52:58;;;;;;;;;;;;;;;20.79;39.97;100787.69;5323172;32;45837;-72
2022/09/22 12:55:59;;;;;;;;;;;;;;;19.96;41.67;100792.91;5317283;32;33295;-65
2022/09/22 12:59:01;;;;;;;;;;;;;;;19.58;42.43;100790.28;5329197;32;32938;-72
2022/09/22 13:02:09;;;;;;;;;;;;;;;17.99;48.05;100791.12;5321442;32;33279;-76
2022/09/22 13:05:27;;;;;;;;;;;;;;;17.85;47.70;100785.81;5336171;32;33245;-75
2022/09/22 13:08:29;;;;;;;;;;;;;;;18.19;47.44;100787.19;5320388;32;44501;-89
2022/09/22 13:11:49;;;;;;;;;;;;;;;19.63;43.91;100783.69;5323688;32;34404;-76
2022/09/22 13:14:58;;;;;;;;;;;;;;;19.10;45.40;100782.91;5327163;32;33968;-79
2022/09/22 13:18:00;;;;;;;;;;;;;;;19.80;43.26;100762.97;5320128;32;44275;-70
2022/09/22 13:21:11;;;;;;;;;;;;;;;22.29;38.10;100757.22;5331352;32;33196;-73
2022/09/22 13:24:16;;;;;;;;;;;;;;;23.62;34.73;100753.94;5324296;32;32757;-80
2022/09/22 13:27:18;;;;;;;;;;;;;;;26.36;29.63;100743.41;5311724;32;34399;-71
2022/09/22 13:30:21;;;;;;;;;;;;;;;24.41;32.15;100751.34;5328312;32;34186;-79
2022/09/22 13:33:24;;;;;;;;;;;;;;;21.77;37.68;100750.72;5323472;32;44547;-71
2022/09/22 13:36:27;;;;;;;;;;;;;;;20.84;40.96;100753.50;5326087;32;32985;-70
2022/09/22 13:39:30;;;;;;;;;;;;;;;19.30;43.43;100760.22;5323715;32;33576;-74
2022/09/22 13:42:31;;;;;;;;;;;;;;;19.37;43.11;100749.97;5310647;32;34451;-78
2022/09/22 13:45:34;;;;;;;;;;;;;;;19.97;40.45;100747.47;5312275;32;34210;-71
2022/09/22 13:48:36;;;;;;;;;;;;;;;19.13;42.54;100750.75;5322788;32;33349;-70
2022/09/22 13:51:38;;;;;;;;;;;;;;;18.49;43.72;100743.56;5330017;32;33168;-75
2022/09/22 13:54:40;;;;;;;;;;;;;;;18.92;42.90;100729.06;5316500;32;33563;-71
2022/09/22 13:57:42;;;;;;;;;;;;;;;19.06;41.71;100727.28;5330201;32;33049;-75
2022/09/22 14:00:48;;;;;;;;;;;;;;;18.57;43.21;100733.25;5317908;32;33349;-71
2022/09/22 14:04:20;;;;;;;;;;;;;;;19.24;41.38;100723.34;5315186;32;33423;-74
2022/09/22 14:07:22;;;;;;;;;;;;;;;18.21;43.28;100729.41;5322769;32;47045;-73
2022/09/22 14:10:26;;;;;;;;;;;;;;;18.32;42.96;100731.38;5286301;32;47687;-64
2022/09/22 14:13:37;;;;;;;;;;;;;;;17.97;43.22;100737.19;5331561;32;34045;-64
2022/09/22 14:16:48;;;;;;;;;;;;;;;17.88;43.59;100729.78;5314612;32;33431;-74
2022/09/22 14:19:54;;;;;;;;;;;;;;;19.11;40.88;100719.81;5326589;32;33579;-65
2022/09/22 14:22:56;;;;;;;;;;;;;;;18.12;43.25;100727.34;5327280;32;47275;-63
2022/09/22 14:26:03;;;;;;;;;;;;;;;18.01;44.28;100724.53;5311900;32;34118;-65
2022/09/22 14:29:09;;;;;;;;;;;;;;;19.22;41.77;100719.94;5329982;32;32830;-64
2022/09/22 14:32:20;;;;;;;;;;;;;;;19.14;42.26;100714.28;5318917;32;33559;-73
2022/09/22 14:35:24;;;;;;;;;;;;;;;19.37;41.56;100718.00;5327748;32;47115;-64
2022/09/22 14:38:26;;;;;;;;;;;;;;;19.17;41.67;100722.06;5317774;32;33706;-73
2022/09/22 14:41:35;;;;;;;;;;;;;;;18.97;41.60;100720.78;5307705;32;33435;-72
2022/09/22 14:44:41;;;;;;;;;;;;;;;18.80;41.50;100724.59;5316401;32;32040;-64
2022/09/22 14:47:43;;;;;;;;;;;;;;;19.44;39.89;100717.44;5317552;32;33005;-65
2022/09/22 14:50:53;;;;;;;;;;;;;;;19.54;39.88;100715.00;5349485;32;33642;-73
2022/09/22 14:54:00;;;;;;;;;;;;;;;18.52;41.77;100722.06;5324426;32;44534;-75
2022/09/22 14:57:03;;;;;;;;;;;;;;;18.21;42.67;100713.44;5315283;32;33664;-63
2022/09/22 15:03:27;;;;;;;;;;;;;;;18.67;42.39;100718.37;5309074;32;44879;-73
2022/09/22 15:06:32;;;;;;;;;;;;;;;18.80;42.50;100713.94;5344920;32;33771;-64
2022/09/22 15:09:41;;;;;;;;;;;;;;;17.79;45.11;100709.97;5335204;32;33388;-66
2022/09/22 15:12:43;;;;;;;;;;;;;;;18.25;43.91;100714.94;5333350;32;32955;-64
2022/09/22 15:15:50;;;;;;;;;;;;;;;19.10;41.88;100720.78;5336751;32;33636;-64
2022/09/22 15:18:52;;;;;;;;;;;;;;;18.34;43.52;100718.81;5322567;32;46344;-64
2022/09/22 15:21:54;;;;;;;;;;;;;;;18.17;43.77;100727.91;5332604;32;33065;-63
2022/09/22 15:24:56;;;;;;;;;;;;;;;17.84;44.84;100723.81;5318941;32;34241;-64
2022/09/22 15:27:58;;;;;;;;;;;;;;;18.03;44.70;100727.94;5332202;32;33826;-75
2022/09/22 15:31:00;;;;;;;;;;;;;;;17.47;46.15;100724.41;5324323;32;33953;-74
2022/09/22 15:34:02;;;;;;;;;;;;;;;18.19;44.33;100726.00;5333667;32;33767;-65
2022/09/22 15:37:04;;;;;;;;;;;;;;;18.22;43.21;100711.63;5332556;32;33345;-73
2022/09/22 15:40:15;;;;;;;;;;;;;;;18.93;41.68;100720.16;5322911;32;33220;-67
2022/09/22 15:43:19;;;;;;;;;;;;;;;17.87;44.41;100725.41;5321447;32;33598;-64
2022/09/22 15:46:26;;;;;;;;;;;;;;;18.22;43.58;100735.56;5318699;32;34704;-64
2022/09/22 15:49:28;;;;;;;;;;;;;;;18.64;42.26;100731.87;5336316;32;46802;-63
2022/09/22 15:52:30;;;;;;;;;;;;;;;18.82;41.19;100722.69;5324579;32;33937;-75
2022/09/22 15:55:32;;;;;;;;;;;;;;;18.79;41.89;100732.69;5323147;32;34448;-64
2022/09/22 15:58:35;;;;;;;;;;;;;;;18.93;41.74;100722.81;5339316;32;34162;-74
2022/09/22 16:01:37;;;;;;;;;;;;;;;18.83;42.25;100726.19;5316178;32;33467;-73
2022/09/22 16:04:38;;;;;;;;;;;;;;;18.93;42.22;100730.81;5330185;32;32892;-64
2022/09/22 16:07:41;;;;;;;;;;;;;;;18.49;43.33;100730.25;5310976;32;34239;-74